Terminal Aerodrome Forecast
Issued by NWS

Home | Current Version | Previous Version | Text Only | Print | Product List | Glossary On
Versions: 1 2 3 4 5 6 7 8 9 10 11 12 13 14 15 16 17 18 19 20 21 22 23 24 25 26 27 28 29 30 31 32 33
000
FTUS45 KREV 080529
TAFTVL
TAF
KTVL 080529Z 0806/0906 VRB04KT P6SM VCSH SCT110 BKN200
     FM081900 04006KT P6SM VCTS SCT050CB BKN080 PROB30 0820/0824
      VRB30KT 3SM TSRA BR BKN030CB
     FM090100 18006KT P6SM VCSH BKN030 OVC080=

USA.gov is the U.S. government's official web portal to all federal, state and local government web resources and services.